Holly Hill, Florida
Current Conditions -  °F | °C
As of 2:53 AM on Saturday 25 Oct 2014 (Local Time) from KDAB Reporting Station
Scattered Clouds Scattered Clouds  
Wind Chill: 17°   Ceiling: Unl
Heat Index: 17°   Visibility: 10mi
Dew Point: 13°   Wind: 7mph
Humidity: 75%   Direction: 320°NW
Pressure: 29.96"   Gusts: NA
Location:  29.25°N, 81.04°W
Report Text: KDAB 250653Z 32006KT 10SM SCT041 17/13 A2996 RMK AO2 SLP145 T01720128
Loading
Personal Weather Stations






























Interactive Weather Map
Tropical Storm Tracking
New forecast layout! Learn more

10-Day Weather Forecast

Advertisements
Track Severe Weather on mobile